createdAt,value
2018-03-19T00:01:08.084Z,42.64
2018-03-19T00:03:36.952Z,42.55
2018-03-19T00:06:06.081Z,42.63
2018-03-19T00:08:34.946Z,43.04
2018-03-19T00:11:03.832Z,43.35
2018-03-19T00:13:32.639Z,43.60
2018-03-19T00:16:01.610Z,42.96
2018-03-19T00:18:30.931Z,43.96
2018-03-19T00:21:00.099Z,43.64
2018-03-19T00:23:28.864Z,43.41
2018-03-19T00:25:58.024Z,43.37
2018-03-19T00:28:26.915Z,43.65
2018-03-19T00:30:55.799Z,43.45
2018-03-19T00:33:24.591Z,43.99
2018-03-19T00:35:53.307Z,44.29
2018-03-19T00:38:22.185Z,43.83
2018-03-19T00:40:51.270Z,44.12
2018-03-19T00:43:20.211Z,44.46
2018-03-19T00:45:49.342Z,43.93
2018-03-19T00:48:18.231Z,44.42
2018-03-19T00:50:47.554Z,44.65
2018-03-19T00:53:16.422Z,44.76
2018-03-19T00:55:45.535Z,45.23
2018-03-19T00:58:14.418Z,45.12
2018-03-19T01:00:43.478Z,45.23
2018-03-19T01:03:12.324Z,44.91
2018-03-19T01:05:41.073Z,45.56
2018-03-19T01:08:10.010Z,45.01
2018-03-19T01:10:38.956Z,45.28
2018-03-19T01:13:07.705Z,45.42
2018-03-19T01:15:36.236Z,45.65
2018-03-19T01:18:04.868Z,45.56
2018-03-19T01:20:33.396Z,46.24
2018-03-19T01:23:01.892Z,46.47
2018-03-19T01:25:30.941Z,46.16
2018-03-19T01:27:59.612Z,45.86
2018-03-19T01:30:28.737Z,46.38
2018-03-19T01:32:57.384Z,46.80
2018-03-19T01:35:26.093Z,46.70
2018-03-19T01:37:54.561Z,46.71
2018-03-19T01:40:23.049Z,46.83
2018-03-19T01:42:51.559Z,47.36
2018-03-19T01:45:20.227Z,47.62
2018-03-19T01:47:48.707Z,47.50
2018-03-19T01:50:17.216Z,48.08
2018-03-19T01:52:50.151Z,47.95
2018-03-19T01:55:18.760Z,48.42
2018-03-19T01:57:47.335Z,48.54
2018-03-19T02:00:16.024Z,49.21
2018-03-19T02:02:44.497Z,48.96
2018-03-19T02:05:13.395Z,49.05
2018-03-19T02:07:41.912Z,49.35
2018-03-19T02:10:10.786Z,49.02
2018-03-19T02:12:39.448Z,49.21
2018-03-19T02:15:07.976Z,49.34
2018-03-19T02:17:36.580Z,49.70
2018-03-19T02:20:05.101Z,50.24
2018-03-19T02:22:33.748Z,50.20
2018-03-19T02:25:02.225Z,49.90
2018-03-19T02:27:30.765Z,49.88
2018-03-19T02:29:59.414Z,50.40
2018-03-19T02:32:28.123Z,50.60
2018-03-19T02:34:56.612Z,50.94
2018-03-19T02:37:25.281Z,50.39
2018-03-19T02:39:53.970Z,51.14
2018-03-19T02:42:22.665Z,51.16
2018-03-19T02:44:51.241Z,51.39
2018-03-19T02:47:19.900Z,51.23
2018-03-19T02:49:48.383Z,51.57
2018-03-19T02:52:16.873Z,51.56
2018-03-19T02:54:45.435Z,51.68
2018-03-19T02:57:13.968Z,51.76
2018-03-19T02:59:42.665Z,51.98
2018-03-19T03:02:11.330Z,51.57
2018-03-19T03:04:39.814Z,52.51
2018-03-19T03:07:08.286Z,51.80
2018-03-19T03:09:36.758Z,52.11
2018-03-19T03:12:05.312Z,52.17
2018-03-19T03:14:33.941Z,52.84
2018-03-19T03:17:02.426Z,52.21
2018-03-19T03:20:34.177Z,53.09
2018-03-19T03:23:02.623Z,52.41
2018-03-19T03:25:31.115Z,52.57
2018-03-19T03:27:59.561Z,52.67
2018-03-19T03:30:28.295Z,53.02
2018-03-19T03:32:56.943Z,53.17
2018-03-19T03:35:25.452Z,53.18
2018-03-19T03:37:54.138Z,53.39
2018-03-19T03:40:22.701Z,53.57
2018-03-19T03:42:51.368Z,53.08
2018-03-19T03:45:20.212Z,53.18
2018-03-19T03:47:48.707Z,53.39
2018-03-19T03:50:17.389Z,53.90
2018-03-19T03:52:45.883Z,54.20
2018-03-19T03:55:14.538Z,54.55
2018-03-19T03:57:43.462Z,53.82
2018-03-19T04:00:12.169Z,53.75
2018-03-19T04:02:40.992Z,53.76
2018-03-19T04:05:09.710Z,54.09
2018-03-19T04:07:38.362Z,54.17
2018-03-19T04:10:07.098Z,54.26
2018-03-19T04:12:35.738Z,53.51
2018-03-19T04:15:04.479Z,53.75
2018-03-19T04:17:33.080Z,53.69
2018-03-19T04:20:01.623Z,54.00
2018-03-19T04:22:30.147Z,54.38
2018-03-19T04:24:58.820Z,53.94
2018-03-19T04:27:27.357Z,54.29
2018-03-19T04:29:55.867Z,55.04
2018-03-19T04:32:24.483Z,54.15
2018-03-19T04:37:27.740Z,54.44
2018-03-19T04:39:56.188Z,54.12
2018-03-19T04:42:24.899Z,54.62
2018-03-19T04:44:53.368Z,54.75
2018-03-19T04:47:21.903Z,54.85
2018-03-19T04:49:50.529Z,54.96
2018-03-19T04:52:19.243Z,55.10
2018-03-19T04:54:47.705Z,54.94
2018-03-19T04:57:16.251Z,55.25
2018-03-19T04:59:44.725Z,55.30
